Portada
METAR-TAF:

METAR-TAF

Aeroports :

Visakhapatnam, Índia

latitud: 17-43-16N, longitud: 83-13-28E, altitud: 6 m

Observació

L'informe es va fer fa 1 hora i 4 minuts, a les 22:00 UTC
Vent 2 kt amb direcció variable
Temperatura 22°C
Humitat 94%
Pressió 1014 hPa
Visibilitat: 3000 m
Escasses núvols a una alçada de 1800 ft
boirina

METAR: VOVZ 162200Z VRB02KT 3000 BR FEW018 22/21 Q1014 NOSIG

Hora: 04:34 (23:04 UTC)

Pronòstic

L'informe es va fer fa 3 hores i 4 minuts, a les 20:00 UTC
Pronòstic vàlid del 16 a les 21 UTC al 17 a les 06 UTC
Vent 2 kt amb direcció variable
Visibilitat: 3000 m
Escasses núvols a una alçada de 1800 ft
boirina
Temporalment
l' 17 a les 00 UTC al 17 a les 02 UTC
Visibilitat: 0500 m
boira

TAF: VOVZ 162000Z 1621/1706 VRB02KT 3000 BR FEW018 TEMPO 1700/1702 0500 FG

Observacions i pronòstics meteorològics de més de 4000 aeroports (METAR i TAF).

Les estacions disponibles són els punts grocs i vermells al mapa.

Posi el ratolí al punt desitjat per veure el nom de l'estació.

Feu clic per veure les observacions i els pronòstics meteorològics.

Per canviar el mapa: feu clic els botons verds amb una creu de color negre per apropar; al botó verd amb un guió per allunyar la imatge; o en les fletxes verdes per a mapes adjacents.


METAR-TAF: